createdAt,value
2018-12-17T00:01:28.786Z,38.10
2018-12-17T00:03:58.167Z,40.60
2018-12-17T00:06:27.370Z,40.55
2018-12-17T00:08:56.543Z,41.30
2018-12-17T00:11:26.154Z,41.02
2018-12-17T00:13:55.555Z,47.00
2018-12-17T00:16:24.773Z,37.73
2018-12-17T00:18:54.022Z,48.52
2018-12-17T00:21:23.178Z,56.85
2018-12-17T00:23:52.426Z,43.10
2018-12-17T00:26:21.778Z,47.53
2018-12-17T00:28:51.108Z,48.30
2018-12-17T00:31:20.295Z,53.17
2018-12-17T00:33:49.538Z,41.60
2018-12-17T00:36:18.739Z,52.23
2018-12-17T00:38:47.803Z,56.08
2018-12-17T00:41:17.082Z,51.98
2018-12-17T00:43:46.295Z,50.38
2018-12-17T00:46:15.491Z,46.92
2018-12-17T00:48:44.835Z,33.25
2018-12-17T00:51:14.352Z,44.85
2018-12-17T00:53:43.706Z,65.85
2018-12-17T00:56:13.244Z,64.82
2018-12-17T00:58:42.543Z,65.60
2018-12-17T01:01:12.223Z,44.13
2018-12-17T01:03:41.593Z,43.80
2018-12-17T01:06:10.734Z,49.50
2018-12-17T01:08:39.962Z,76.60
2018-12-17T01:11:09.225Z,90.92
2018-12-17T01:13:38.485Z,116.70
2018-12-17T01:16:08.081Z,80.87
2018-12-17T01:18:37.314Z,71.87
2018-12-17T01:21:06.436Z,67.42
2018-12-17T01:23:35.717Z,64.07
2018-12-17T01:26:04.916Z,56.53
2018-12-17T01:28:34.874Z,51.68
2018-12-17T01:31:04.098Z,58.55
2018-12-17T01:33:32.824Z,49.53
2018-12-17T01:36:02.020Z,44.53
2018-12-17T01:38:31.251Z,51.30
2018-12-17T01:41:00.399Z,54.38
2018-12-17T01:43:29.941Z,58.00
2018-12-17T01:45:59.396Z,55.43
2018-12-17T01:48:28.581Z,52.60
2018-12-17T01:50:57.751Z,50.30
2018-12-17T01:53:26.967Z,47.15
2018-12-17T01:55:58.855Z,44.33
2018-12-17T01:58:29.342Z,45.83
2018-12-17T02:00:58.683Z,48.58
2018-12-17T02:03:28.189Z,53.65
2018-12-17T02:05:57.334Z,54.73
2018-12-17T02:08:26.557Z,54.75
2018-12-17T02:10:55.541Z,45.15
2018-12-17T02:13:24.615Z,44.77
2018-12-17T02:15:53.992Z,49.18
2018-12-17T02:18:23.163Z,49.93
2018-12-17T02:20:52.398Z,46.80
2018-12-17T02:23:21.534Z,46.55
2018-12-17T02:25:50.775Z,42.95
2018-12-17T02:28:20.125Z,41.73
2018-12-17T02:30:49.580Z,42.33
2018-12-17T02:33:18.708Z,47.65
2018-12-17T02:35:47.888Z,42.17
2018-12-17T02:38:17.130Z,37.38
2018-12-17T02:40:46.130Z,40.98
2018-12-17T02:43:15.551Z,39.63
2018-12-17T02:45:44.876Z,36.05
2018-12-17T02:48:14.062Z,38.70
2018-12-17T02:50:43.291Z,34.60
2018-12-17T02:53:12.536Z,42.73
2018-12-17T02:55:41.840Z,38.20
2018-12-17T02:58:11.066Z,39.00
2018-12-17T03:00:40.297Z,91.05
2018-12-17T03:03:09.250Z,150.53
2018-12-17T03:05:38.629Z,45.10
2018-12-17T03:08:07.990Z,79.42
2018-12-17T03:10:37.227Z,89.13
2018-12-17T03:13:06.372Z,100.62
2018-12-17T03:15:35.586Z,65.47
2018-12-17T03:18:05.143Z,78.75
2018-12-17T03:20:34.474Z,75.45
2018-12-17T03:23:03.657Z,91.40
2018-12-17T03:25:32.710Z,83.35
2018-12-17T03:28:02.041Z,74.45
2018-12-17T03:30:31.087Z,65.65
2018-12-17T03:33:00.288Z,79.22
2018-12-17T03:35:29.803Z,66.53
2018-12-17T03:37:59.083Z,70.22
2018-12-17T03:40:28.475Z,69.47
2018-12-17T03:42:57.929Z,81.32
2018-12-17T03:45:27.014Z,76.72
2018-12-17T03:47:56.087Z,77.10
2018-12-17T03:50:25.976Z,76.37
2018-12-17T03:52:54.966Z,72.47
2018-12-17T03:55:24.242Z,75.25
2018-12-17T03:57:53.532Z,72.35
2018-12-17T04:00:22.422Z,62.55
2018-12-17T04:02:51.503Z,58.70
2018-12-17T04:05:20.899Z,52.10
2018-12-17T04:07:49.668Z,55.63
2018-12-17T04:10:19.200Z,70.08
2018-12-17T04:12:48.827Z,69.97
2018-12-17T04:15:18.379Z,63.98
2018-12-17T04:17:47.715Z,64.32
2018-12-17T04:20:16.899Z,50.90
2018-12-17T04:22:45.974Z,56.10
2018-12-17T04:25:15.364Z,59.00
2018-12-17T04:27:45.109Z,46.25
2018-12-17T04:30:14.799Z,60.35
2018-12-17T04:32:44.503Z,60.95
2018-12-17T04:35:13.510Z,59.13
2018-12-17T04:37:42.693Z,55.30
2018-12-17T04:40:12.301Z,49.08
2018-12-17T04:42:41.162Z,55.03
2018-12-17T04:45:11.094Z,51.73
2018-12-17T04:47:40.291Z,67.65
2018-12-17T04:50:09.453Z,59.40
2018-12-17T04:52:38.559Z,60.67
2018-12-17T04:55:07.985Z,70.52
2018-12-17T04:57:37.396Z,67.80
2018-12-17T05:00:09.921Z,60.67
2018-12-17T05:02:39.182Z,59.05
2018-12-17T05:05:08.474Z,61.60
2018-12-17T05:07:37.206Z,61.77
2018-12-17T05:10:07.072Z,67.05
2018-12-17T05:12:36.374Z,54.75
2018-12-17T05:15:06.281Z,65.62
2018-12-17T05:17:36.001Z,68.60
2018-12-17T05:20:05.344Z,62.40
2018-12-17T05:22:34.286Z,65.85
2018-12-17T05:25:03.902Z,63.28
2018-12-17T05:27:33.087Z,69.50
2018-12-17T05:30:01.954Z,58.75
2018-12-17T05:32:31.498Z,49.10
2018-12-17T05:35:01.309Z,51.15
2018-12-17T05:37:30.566Z,52.58
2018-12-17T05:40:00.104Z,44.08
2018-12-17T05:42:29.315Z,44.13
2018-12-17T05:44:58.498Z,41.10
2018-12-17T05:47:27.614Z,35.98
2018-12-17T05:49:57.488Z,34.98
2018-12-17T05:52:26.675Z,33.25
2018-12-17T05:57:29.745Z,34.25
2018-12-17T05:59:58.924Z,31.60
2018-12-17T06:02:28.240Z,32.60
2018-12-17T06:04:57.400Z,33.40
2018-12-17T06:07:26.592Z,30.62
2018-12-17T06:09:55.701Z,42.23
2018-12-17T06:12:24.892Z,31.05
2018-12-17T06:14:54.879Z,29.05
2018-12-17T06:17:24.308Z,28.57
2018-12-17T06:19:53.544Z,36.65
2018-12-17T06:22:22.857Z,32.45
2018-12-17T06:24:52.169Z,31.05
2018-12-17T06:27:21.366Z,29.72
2018-12-17T06:29:50.632Z,32.40
2018-12-17T06:32:20.497Z,36.77
2018-12-17T06:34:50.190Z,31.57
2018-12-17T06:37:19.314Z,27.20
2018-12-17T06:39:48.531Z,29.05
2018-12-17T06:42:18.266Z,32.17
2018-12-17T06:44:47.302Z,27.52
2018-12-17T06:47:23.067Z,37.67
2018-12-17T06:49:52.350Z,32.28
2018-12-17T06:52:21.579Z,39.23
2018-12-17T06:54:54.743Z,32.90
2018-12-17T06:57:21.786Z,32.65
2018-12-17T06:59:51.401Z,29.45
2018-12-17T07:02:21.034Z,33.48
2018-12-17T07:04:50.322Z,31.40
2018-12-17T07:07:19.494Z,30.00
2018-12-17T07:09:48.649Z,31.35
2018-12-17T07:12:17.874Z,31.25
2018-12-17T07:14:47.314Z,28.27
2018-12-17T07:17:16.537Z,35.05
2018-12-17T07:19:46.885Z,37.98
2018-12-17T07:22:16.018Z,35.20
2018-12-17T07:24:45.065Z,33.88
2018-12-17T07:27:14.672Z,36.35
2018-12-17T07:29:49.749Z,40.15
2018-12-17T07:32:15.730Z,33.30
2018-12-17T07:34:46.177Z,36.83
2018-12-17T07:37:15.517Z,36.23
2018-12-17T07:39:45.034Z,37.67
2018-12-17T07:42:14.416Z,38.30
2018-12-17T07:44:43.547Z,29.82
2018-12-17T07:47:12.778Z,35.17
2018-12-17T07:49:41.933Z,33.08
2018-12-17T07:52:11.390Z,32.30
2018-12-17T07:54:40.634Z,35.23
2018-12-17T07:57:10.022Z,30.82
2018-12-17T07:59:38.738Z,29.20
2018-12-17T08:02:07.961Z,29.52
2018-12-17T08:04:38.423Z,32.00
2018-12-17T08:07:07.571Z,28.85
2018-12-17T08:09:36.698Z,29.82
2018-12-17T08:12:06.202Z,28.15
2018-12-17T08:14:35.751Z,29.48
2018-12-17T08:17:05.032Z,29.20
2018-12-17T08:19:34.409Z,26.17
2018-12-17T08:22:07.264Z,29.85
2018-12-17T08:24:36.535Z,26.48
2018-12-17T08:27:05.902Z,23.40
2018-12-17T08:29:35.176Z,26.95
2018-12-17T08:32:04.499Z,28.25
2018-12-17T08:34:33.765Z,24.92
2018-12-17T08:37:02.919Z,25.55
2018-12-17T08:39:32.191Z,19.98
2018-12-17T08:42:01.668Z,21.37
2018-12-17T08:44:30.794Z,21.23
2018-12-17T08:47:00.074Z,27.07
2018-12-17T08:49:29.294Z,23.00
2018-12-17T08:51:58.570Z,22.60
2018-12-17T08:54:28.029Z,22.67
2018-12-17T08:56:57.249Z,21.85
2018-12-17T08:59:26.408Z,23.10
2018-12-17T09:01:55.595Z,19.20
2018-12-17T09:04:24.993Z,21.95
2018-12-17T09:06:54.717Z,21.68
2018-12-17T09:09:23.947Z,24.30
2018-12-17T09:11:53.190Z,33.30
2018-12-17T09:14:23.147Z,19.00
2018-12-17T09:16:52.294Z,24.67
2018-12-17T09:19:23.295Z,19.32
2018-12-17T09:21:52.678Z,19.85
2018-12-17T09:24:21.742Z,17.87
2018-12-17T09:26:51.106Z,19.70
2018-12-17T09:29:20.569Z,16.30
2018-12-17T09:31:49.675Z,17.73
2018-12-17T09:34:18.798Z,22.20
2018-12-17T09:36:47.909Z,19.45
2018-12-17T09:39:18.599Z,18.42
2018-12-17T09:41:48.033Z,18.60
2018-12-17T09:44:17.357Z,18.75
2018-12-17T09:46:46.811Z,17.92
2018-12-17T09:49:15.741Z,20.27
2018-12-17T09:51:44.985Z,16.35
2018-12-17T09:54:14.596Z,19.97
2018-12-17T09:56:43.802Z,16.15
2018-12-17T09:59:12.902Z,16.87
2018-12-17T10:01:42.018Z,12.40
2018-12-17T10:04:11.199Z,16.60
2018-12-17T10:06:40.075Z,13.90
2018-12-17T10:09:09.438Z,12.43
2018-12-17T10:11:38.594Z,16.77
2018-12-17T10:14:07.509Z,18.77
2018-12-17T10:16:37.002Z,16.37
2018-12-17T10:19:06.243Z,14.17
2018-12-17T10:21:35.122Z,17.30
2018-12-17T10:24:04.405Z,15.13
2018-12-17T10:26:33.829Z,11.87
2018-12-17T10:29:03.151Z,14.37
2018-12-17T10:31:32.852Z,15.00
2018-12-17T10:34:02.184Z,11.03
2018-12-17T10:36:31.305Z,13.67
2018-12-17T10:39:00.441Z,13.73
2018-12-17T10:41:29.614Z,12.33
2018-12-17T10:43:58.780Z,17.77
2018-12-17T10:46:27.979Z,22.23
2018-12-17T10:48:57.539Z,15.33
2018-12-17T10:51:26.939Z,18.40
2018-12-17T10:53:56.418Z,14.93
2018-12-17T10:56:25.659Z,12.13
2018-12-17T10:58:54.486Z,10.30
2018-12-17T11:01:29.234Z,11.50
2018-12-17T11:04:07.042Z,10.43
2018-12-17T11:06:36.438Z,9.03
2018-12-17T11:09:07.686Z,10.17
2018-12-17T11:11:36.953Z,9.50
2018-12-17T11:14:06.701Z,7.43
2018-12-17T11:16:36.157Z,9.43
2018-12-17T11:19:05.565Z,8.47
2018-12-17T11:21:34.828Z,7.17
2018-12-17T11:24:03.823Z,7.03
2018-12-17T11:26:33.233Z,10.13
2018-12-17T11:29:02.414Z,10.47
2018-12-17T11:31:31.634Z,9.20
2018-12-17T11:34:01.084Z,11.13
2018-12-17T11:36:30.292Z,9.30
2018-12-17T11:38:59.353Z,9.03
2018-12-17T11:41:28.651Z,11.97
2018-12-17T11:43:57.774Z,12.03
2018-12-17T11:46:26.993Z,9.07
2018-12-17T11:48:56.519Z,7.43
2018-12-17T11:51:26.099Z,7.87
2018-12-17T11:53:55.159Z,8.03
2018-12-17T11:56:34.132Z,9.40
2018-12-17T11:59:03.596Z,11.20
2018-12-17T12:01:33.116Z,7.50
2018-12-17T12:04:02.708Z,5.63
2018-12-17T12:06:31.839Z,6.13
2018-12-17T12:09:01.503Z,8.40
2018-12-17T12:11:30.723Z,6.47
2018-12-17T12:14:00.051Z,7.83
2018-12-17T12:16:29.479Z,17.63
2018-12-17T12:18:58.427Z,8.03
2018-12-17T12:21:27.688Z,9.93
2018-12-17T12:23:56.778Z,5.97
2018-12-17T12:26:26.162Z,6.90
2018-12-17T12:28:55.149Z,7.10
2018-12-17T12:31:24.388Z,9.10
2018-12-17T12:33:53.541Z,7.33
2018-12-17T12:36:23.098Z,9.60
2018-12-17T12:38:53.387Z,9.80
2018-12-17T12:41:23.014Z,7.90
2018-12-17T12:43:52.502Z,8.77
2018-12-17T12:46:21.815Z,6.07
2018-12-17T12:48:51.548Z,5.23
2018-12-17T12:51:20.871Z,6.40
2018-12-17T12:53:50.071Z,7.90
2018-12-17T12:56:19.143Z,6.80
2018-12-17T12:58:48.698Z,6.73
2018-12-17T13:01:18.409Z,5.20
2018-12-17T13:03:47.554Z,4.97
2018-12-17T13:06:16.978Z,5.03
2018-12-17T13:08:46.114Z,5.50
2018-12-17T13:11:15.284Z,8.13
2018-12-17T13:13:44.528Z,6.90
2018-12-17T13:16:13.813Z,6.37
2018-12-17T13:18:43.286Z,4.07
2018-12-17T13:21:12.626Z,8.33
2018-12-17T13:23:42.193Z,5.23
2018-12-17T13:26:11.454Z,5.03
2018-12-17T13:28:40.940Z,8.07
2018-12-17T13:31:14.570Z,6.03
2018-12-17T13:33:41.742Z,6.13
2018-12-17T13:36:11.155Z,8.37
2018-12-17T13:38:40.190Z,10.27
2018-12-17T13:41:09.373Z,10.50
2018-12-17T13:43:38.574Z,16.40
2018-12-17T13:46:07.670Z,11.87
2018-12-17T13:48:38.133Z,16.47
2018-12-17T13:51:12.427Z,17.07
2018-12-17T13:53:41.754Z,16.63
2018-12-17T13:56:11.165Z,14.90
2018-12-17T13:58:40.594Z,18.93
2018-12-17T14:01:09.906Z,13.57
2018-12-17T14:03:39.019Z,7.03
2018-12-17T14:06:08.253Z,5.80
2018-12-17T14:08:37.486Z,4.37
2018-12-17T14:11:06.641Z,4.93
2018-12-17T14:13:35.982Z,4.07
2018-12-17T14:16:10.370Z,1.93
2018-12-17T14:18:45.118Z,3.80
2018-12-17T14:21:19.594Z,1.50
2018-12-17T14:23:48.892Z,2.20
2018-12-17T14:26:18.164Z,2.57
2018-12-17T14:28:47.232Z,1.70
2018-12-17T14:31:16.457Z,1.53
2018-12-17T14:33:46.320Z,2.70
2018-12-17T14:36:16.040Z,3.90
2018-12-17T14:38:45.110Z,1.97
2018-12-17T14:41:14.215Z,6.00
2018-12-17T14:43:43.350Z,2.03
2018-12-17T14:46:12.440Z,2.00
2018-12-17T14:48:41.636Z,2.50
2018-12-17T14:51:10.765Z,2.27
2018-12-17T14:53:39.870Z,3.93
2018-12-17T14:56:09.131Z,3.20
2018-12-17T14:58:44.403Z,4.10
2018-12-17T15:01:09.589Z,4.20
2018-12-17T15:03:38.565Z,4.93
2018-12-17T15:06:07.867Z,6.43
2018-12-17T15:08:37.681Z,3.10
2018-12-17T15:11:07.111Z,2.93
2018-12-17T15:13:36.621Z,2.93
2018-12-17T15:16:05.778Z,6.17
2018-12-17T15:18:36.868Z,7.70
2018-12-17T15:21:06.205Z,5.87
2018-12-17T15:23:35.377Z,3.77
2018-12-17T15:26:06.034Z,6.33
2018-12-17T15:28:35.485Z,6.53
2018-12-17T15:31:04.904Z,6.23
2018-12-17T15:33:34.225Z,4.07
2018-12-17T15:36:03.705Z,6.90
2018-12-17T15:38:32.781Z,9.03
2018-12-17T15:41:02.340Z,2.23
2018-12-17T15:43:32.024Z,5.43
2018-12-17T15:46:01.249Z,4.57
2018-12-17T15:48:30.601Z,11.47
2018-12-17T15:50:59.885Z,8.07
2018-12-17T15:53:29.043Z,12.13
2018-12-17T15:55:58.408Z,7.77
2018-12-17T15:58:27.543Z,5.80
2018-12-17T16:00:56.720Z,4.13
2018-12-17T16:03:25.839Z,6.83
2018-12-17T16:05:55.224Z,7.20
2018-12-17T16:08:24.374Z,4.47
2018-12-17T16:10:53.898Z,4.37
2018-12-17T16:13:23.343Z,5.07
2018-12-17T16:15:52.614Z,4.53
2018-12-17T16:18:21.914Z,10.30
2018-12-17T16:20:51.245Z,9.67
2018-12-17T16:23:20.467Z,6.60
2018-12-17T16:25:49.825Z,7.63
2018-12-17T16:28:19.017Z,9.57
2018-12-17T16:30:48.227Z,6.67
2018-12-17T16:33:17.673Z,5.87
2018-12-17T16:35:46.896Z,6.37
2018-12-17T16:38:15.970Z,4.13
2018-12-17T16:40:45.835Z,5.93
2018-12-17T16:43:15.140Z,3.37
2018-12-17T16:45:44.736Z,8.07
2018-12-17T16:48:14.716Z,6.80
2018-12-17T16:50:44.086Z,7.13
2018-12-17T16:53:13.229Z,5.23
2018-12-17T16:55:42.262Z,5.23
2018-12-17T16:58:11.540Z,5.97
2018-12-17T17:00:40.897Z,5.63
2018-12-17T17:03:10.629Z,6.10
2018-12-17T17:05:39.885Z,5.17
2018-12-17T17:08:08.971Z,4.37
2018-12-17T17:10:38.368Z,6.37
2018-12-17T17:13:07.624Z,5.13
2018-12-17T17:15:36.850Z,7.93
2018-12-17T17:18:06.192Z,10.73
2018-12-17T17:20:35.802Z,5.97
2018-12-17T17:23:05.510Z,6.60
2018-12-17T17:25:34.902Z,5.80
2018-12-17T17:28:04.302Z,5.30
2018-12-17T17:30:33.463Z,7.77
2018-12-17T17:33:02.674Z,7.10
2018-12-17T17:35:31.980Z,9.00
2018-12-17T17:38:01.285Z,10.73
2018-12-17T17:40:30.465Z,8.47
2018-12-17T17:42:59.635Z,5.73
2018-12-17T17:45:29.195Z,9.23
2018-12-17T17:47:58.393Z,6.10
2018-12-17T17:50:27.767Z,11.13
2018-12-17T17:52:57.200Z,9.10
2018-12-17T17:55:26.587Z,9.80
2018-12-17T17:57:55.942Z,7.37
2018-12-17T18:00:25.108Z,9.50
2018-12-17T18:02:53.983Z,7.70
2018-12-17T18:05:23.223Z,9.93
2018-12-17T18:07:52.321Z,8.43
2018-12-17T18:10:22.150Z,11.30
2018-12-17T18:12:51.448Z,8.17
2018-12-17T18:15:20.613Z,8.43
2018-12-17T18:17:49.822Z,8.70
2018-12-17T18:20:18.754Z,11.93
2018-12-17T18:22:48.122Z,9.73
2018-12-17T18:25:17.427Z,9.50
2018-12-17T18:27:46.313Z,6.77
2018-12-17T18:30:15.769Z,13.33
2018-12-17T18:32:45.153Z,11.03
2018-12-17T18:35:14.065Z,10.53
2018-12-17T18:37:42.970Z,7.13
2018-12-17T18:40:12.549Z,6.90
2018-12-17T18:42:41.899Z,7.63
2018-12-17T18:45:11.271Z,6.67
2018-12-17T18:47:40.509Z,10.53
2018-12-17T18:50:10.059Z,10.97
2018-12-17T18:52:39.113Z,14.00
2018-12-17T18:55:08.584Z,12.17
2018-12-17T18:57:38.779Z,8.50
2018-12-17T19:00:08.670Z,15.77
2018-12-17T19:02:37.986Z,9.83
2018-12-17T19:05:07.579Z,8.97
2018-12-17T19:07:37.294Z,10.07
2018-12-17T19:10:07.246Z,17.43
2018-12-17T19:12:37.191Z,9.33
2018-12-17T19:15:06.803Z,18.47
2018-12-17T19:17:36.076Z,16.67
2018-12-17T19:20:05.789Z,10.57
2018-12-17T19:22:35.003Z,10.57
2018-12-17T19:25:04.650Z,11.10
2018-12-17T19:27:33.840Z,11.67
2018-12-17T19:30:02.933Z,28.03
2018-12-17T19:32:32.158Z,24.07
2018-12-17T19:35:01.622Z,19.57
2018-12-17T19:37:30.776Z,17.17
2018-12-17T19:40:00.216Z,23.73
2018-12-17T19:42:29.390Z,26.90
2018-12-17T19:44:58.490Z,23.10
2018-12-17T19:47:27.717Z,21.50
2018-12-17T19:49:56.983Z,19.23
2018-12-17T19:52:26.350Z,19.07
2018-12-17T19:54:55.529Z,14.47
2018-12-17T19:57:25.100Z,22.70
2018-12-17T19:59:54.211Z,30.03
2018-12-17T20:02:23.452Z,14.23
2018-12-17T20:04:52.554Z,15.03
2018-12-17T20:07:21.889Z,11.40
2018-12-17T20:09:51.601Z,11.13
2018-12-17T20:12:20.877Z,10.43
2018-12-17T20:14:50.234Z,11.20
2018-12-17T20:17:19.515Z,14.13
2018-12-17T20:19:48.710Z,11.03
2018-12-17T20:22:17.783Z,14.07
2018-12-17T20:24:47.716Z,12.50
2018-12-17T20:27:16.771Z,11.73
2018-12-17T20:29:50.462Z,12.03
2018-12-17T20:32:17.214Z,14.37
2018-12-17T20:34:46.933Z,23.27
2018-12-17T20:37:16.165Z,14.00
2018-12-17T20:39:45.850Z,11.77
2018-12-17T20:42:15.218Z,13.73
2018-12-17T20:44:44.449Z,16.93
2018-12-17T20:47:13.624Z,16.33
2018-12-17T20:49:42.754Z,16.47
2018-12-17T20:52:11.992Z,15.20
2018-12-17T20:54:41.053Z,16.97
2018-12-17T20:57:10.277Z,20.57
2018-12-17T20:59:39.634Z,17.40
2018-12-17T21:02:08.579Z,15.90
2018-12-17T21:04:38.011Z,14.73
2018-12-17T21:07:07.059Z,12.63
2018-12-17T21:09:36.419Z,18.47
2018-12-17T21:12:05.721Z,19.33
2018-12-17T21:14:35.035Z,19.03
2018-12-17T21:17:04.361Z,18.23
2018-12-17T21:19:33.450Z,21.70
2018-12-17T21:22:02.582Z,20.43
2018-12-17T21:24:32.006Z,17.53
2018-12-17T21:27:01.290Z,17.27
2018-12-17T21:29:30.374Z,20.53
2018-12-17T21:31:59.721Z,14.87
2018-12-17T21:34:29.191Z,16.67
2018-12-17T21:36:58.544Z,17.07
2018-12-17T21:39:27.664Z,21.13
2018-12-17T21:41:56.915Z,23.20
2018-12-17T21:44:26.370Z,18.30
2018-12-17T21:46:55.824Z,18.63
2018-12-17T21:49:25.054Z,23.43
2018-12-17T21:51:54.581Z,29.63
2018-12-17T21:54:24.031Z,22.53
2018-12-17T21:56:53.226Z,22.30
2018-12-17T21:59:22.899Z,20.57
2018-12-17T22:01:51.974Z,25.33
2018-12-17T22:04:21.075Z,21.37
2018-12-17T22:06:50.342Z,21.80
2018-12-17T22:09:19.487Z,20.03
2018-12-17T22:11:49.045Z,29.77
2018-12-17T22:14:18.365Z,25.80
2018-12-17T22:16:47.579Z,21.63
2018-12-17T22:19:16.805Z,16.13
2018-12-17T22:21:45.937Z,17.50
2018-12-17T22:24:15.110Z,18.73
2018-12-17T22:26:44.366Z,14.87
2018-12-17T22:29:13.417Z,19.37
2018-12-17T22:31:42.872Z,22.33
2018-12-17T22:34:12.150Z,22.17
2018-12-17T22:36:41.447Z,24.50
2018-12-17T22:39:10.765Z,17.97
2018-12-17T22:41:40.054Z,22.23
2018-12-17T22:44:09.199Z,17.63
2018-12-17T22:46:38.483Z,18.23
2018-12-17T22:49:08.129Z,22.17
2018-12-17T22:51:37.457Z,20.10
2018-12-17T22:54:07.619Z,19.33
2018-12-17T22:56:37.253Z,19.23
2018-12-17T22:59:06.893Z,23.77
2018-12-17T23:01:36.177Z,23.50
2018-12-17T23:04:05.905Z,27.27
2018-12-17T23:06:35.395Z,29.13
2018-12-17T23:09:04.823Z,24.17
2018-12-17T23:11:50.181Z,24.67
2018-12-17T23:14:30.252Z,27.00
2018-12-17T23:17:10.417Z,32.27
2018-12-17T23:19:46.626Z,30.00
2018-12-17T23:22:16.763Z,23.50
2018-12-17T23:24:46.024Z,25.73
2018-12-17T23:27:15.346Z,27.37
2018-12-17T23:29:44.777Z,23.03
2018-12-17T23:32:13.986Z,24.63
2018-12-17T23:34:43.194Z,26.23
2018-12-17T23:37:12.416Z,27.60
2018-12-17T23:39:41.666Z,30.27
2018-12-17T23:42:10.733Z,24.27
2018-12-17T23:44:40.536Z,24.20
2018-12-17T23:47:09.674Z,21.40
2018-12-17T23:49:39.522Z,20.03
2018-12-17T23:52:08.944Z,16.73
2018-12-17T23:54:38.066Z,18.20
2018-12-17T23:57:07.460Z,14.17
2018-12-17T23:59:36.370Z,15.97
